Paranagua, Brazil
Current Conditions -  °F | °C
As of 1:00 PM on Saturday 25 Oct 2014 (Local Time) from SBCT Reporting Station
Few Clouds Few Clouds  
Wind Chill: 73°   Ceiling: Unl
Heat Index: 73°   Visibility: 6mi
Dew Point: 57°   Wind: 10mph
Humidity: 57%   Direction: 350°N
Pressure: 30.06"   Gusts: NA
Location:  25.51°S, 48.54°W
Report Text: SBCT 251500Z 35009KT 9999 FEW020 23/14 Q1018
Loading
Personal Weather Stations






























Interactive Weather Map
Tropical Storm Tracking
New forecast layout! Learn more

10-Day Weather Forecast

Advertisements
Track Severe Weather on mobile